Time;durP1;ratioP1;P1;durP2;ratioP2;P2;SDS_P1;SDS_P2;PMS_P1;PMS_P2;Temp;Humidity;BMP_temperature;BMP_pressure;BME280_temperature;BME280_humidity;BME280_pressure;Samples;Min_cycle;Max_cycle;Signal;HPM_P1;HPM_P2
2023/05/10 00:02:52;;;;;;;;;;;;;;;10.38;41.65;99302.29;135630;1280;22583;-64
2023/05/10 00:05:54;;;;;;;;;;;;;;;10.39;41.57;99295.75;131405;1280;5373325;-65
2023/05/10 00:08:58;;;;;;;;;;;;;;;10.35;41.87;99297.02;135497;1280;22534;-64
2023/05/10 00:12:01;;;;;;;;;;;;;;;10.40;41.55;99287.32;135663;1280;22525;-67
2023/05/10 00:15:07;;;;;;;;;;;;;;;10.37;41.80;99283.63;135642;1280;22546;-63
2023/05/10 00:18:10;;;;;;;;;;;;;;;10.37;41.80;99283.27;135592;1280;26598;-64
2023/05/10 00:21:13;;;;;;;;;;;;;;;10.43;42.05;99280.69;135590;1280;22524;-71
2023/05/10 00:24:15;;;;;;;;;;;;;;;10.33;41.74;99282.95;135648;1280;22527;-68
2023/05/10 00:27:19;;;;;;;;;;;;;;;10.30;42.25;99283.08;135632;1270;22531;-66
2023/05/10 00:30:25;;;;;;;;;;;;;;;10.33;42.49;99281.73;135612;1280;22617;-67
2023/05/10 00:33:29;;;;;;;;;;;;;;;10.34;42.42;99280.30;135602;1280;22561;-64
2023/05/10 00:36:31;;;;;;;;;;;;;;;10.35;42.29;99277.23;135616;1280;25334;-63
2023/05/10 00:39:42;;;;;;;;;;;;;;;10.35;42.38;99276.20;135646;1280;22526;-69
2023/05/10 00:42:53;;;;;;;;;;;;;;;10.29;42.50;99271.27;135382;1280;24314;-66
2023/05/10 00:45:56;;;;;;;;;;;;;;;10.28;42.58;99271.14;135610;1280;22507;-66
2023/05/10 00:48:59;;;;;;;;;;;;;;;10.29;42.67;99274.40;135384;1266;22523;-66
2023/05/10 00:52:02;;;;;;;;;;;;;;;10.26;42.83;99270.72;135574;1280;22523;-68
2023/05/10 00:55:05;;;;;;;;;;;;;;;10.26;42.58;99270.21;135353;1280;22542;-69
2023/05/10 00:58:08;;;;;;;;;;;;;;;10.22;43.23;99262.00;135619;1280;25389;-64
2023/05/10 01:01:11;;;;;;;;;;;;;;;10.16;42.93;99262.67;135621;1280;22504;-64
2023/05/10 01:04:25;;;;;;;;;;;;;;;10.15;43.49;99259.61;135594;1280;24235;-63
2023/05/10 01:07:28;;;;;;;;;;;;;;;10.15;43.73;99261.12;135637;1280;22515;-65
2023/05/10 01:10:31;;;;;;;;;;;;;;;10.11;43.75;99262.60;135629;1280;22524;-65
2023/05/10 01:13:34;;;;;;;;;;;;;;;10.12;43.55;99258.67;135612;1280;22506;-65
2023/05/10 01:16:40;;;;;;;;;;;;;;;10.21;43.43;99254.88;135646;1280;25366;-67
2023/05/10 01:19:44;;;;;;;;;;;;;;;10.22;43.30;99254.65;135623;1280;22505;-66
2023/05/10 01:22:47;;;;;;;;;;;;;;;10.20;43.74;99249.48;135595;1280;22568;-64
2023/05/10 01:25:50;;;;;;;;;;;;;;;10.20;43.65;99244.28;135320;1280;22686;-64
2023/05/10 01:29:00;;;;;;;;;;;;;;;10.13;43.59;99246.91;135619;1280;22528;-65
2023/05/10 01:32:03;;;;;;;;;;;;;;;10.12;43.81;99242.45;135605;1280;22643;-67
2023/05/10 01:35:06;;;;;;;;;;;;;;;10.07;44.24;99247.60;135358;1280;22501;-63
2023/05/10 01:38:09;;;;;;;;;;;;;;;10.03;44.61;99245.69;135590;1266;22530;-65
2023/05/10 01:41:15;;;;;;;;;;;;;;;10.06;44.20;99244.83;135606;1280;22492;-64
2023/05/10 01:44:18;;;;;;;;;;;;;;;10.07;44.24;99240.78;135331;1280;22505;-65
2023/05/10 01:47:21;;;;;;;;;;;;;;;10.00;44.64;99243.23;135334;1280;23163;-64
2023/05/10 01:50:24;;;;;;;;;;;;;;;10.00;44.42;99239.71;135631;1280;22529;-65
2023/05/10 01:53:32;;;;;;;;;;;;;;;9.93;44.53;99237.47;135599;1280;22680;-64
2023/05/10 01:56:35;;;;;;;;;;;;;;;10.00;44.35;99238.18;135362;1280;22824;-63
2023/05/10 01:59:40;;;;;;;;;;;;;;;9.97;44.94;99243.04;135537;1280;22531;-65
2023/05/10 02:02:44;;;;;;;;;;;;;;;9.96;44.67;99237.52;135621;1280;22541;-64
2023/05/10 02:05:47;;;;;;;;;;;;;;;9.99;44.75;99234.03;135618;1280;22499;-65
2023/05/10 02:08:50;;;;;;;;;;;;;;;9.97;44.83;99232.04;135634;1280;22613;-67
2023/05/10 02:11:53;;;;;;;;;;;;;;;9.92;44.97;99231.44;135509;1280;25388;-65
2023/05/10 02:14:57;;;;;;;;;;;;;;;9.85;45.04;99227.75;135594;1280;22505;-70
2023/05/10 02:18:02;;;;;;;;;;;;;;;9.80;45.24;99229.77;135620;1261;22499;-70
2023/05/10 02:21:05;;;;;;;;;;;;;;;9.80;45.46;99230.10;135389;1280;22520;-70
2023/05/10 02:24:08;;;;;;;;;;;;;;;9.74;45.35;99227.80;135621;1280;22578;-64
2023/05/10 02:27:11;;;;;;;;;;;;;;;9.68;45.58;99227.54;135624;1262;22504;-68
2023/05/10 02:30:14;;;;;;;;;;;;;;;9.68;45.62;99227.37;135616;1280;22504;-65
2023/05/10 02:33:18;;;;;;;;;;;;;;;9.63;45.66;99227.64;135591;1280;22516;-65
2023/05/10 02:36:21;;;;;;;;;;;;;;;9.66;45.66;99225.92;135596;1262;22511;-64
2023/05/10 02:39:28;;;;;;;;;;;;;;;9.60;46.07;99225.15;135605;1280;22545;-65
2023/05/10 02:42:31;;;;;;;;;;;;;;;9.53;46.03;99226.23;135626;1280;22509;-63
2023/05/10 02:45:35;;;;;;;;;;;;;;;9.47;46.42;99224.30;135629;1280;22508;-65
2023/05/10 02:48:38;;;;;;;;;;;;;;;9.40;46.58;99218.14;135577;1280;22497;-64
2023/05/10 02:51:42;;;;;;;;;;;;;;;9.36;46.41;99221.84;135597;1280;22491;-64
2023/05/10 02:54:45;;;;;;;;;;;;;;;9.30;47.31;99220.00;135458;1280;22530;-69
2023/05/10 02:57:48;;;;;;;;;;;;;;;9.33;47.21;99223.20;135626;1280;22514;-65
2023/05/10 03:00:51;;;;;;;;;;;;;;;9.32;47.01;99221.31;135603;1262;22517;-65
2023/05/10 03:03:54;;;;;;;;;;;;;;;9.30;46.91;99222.45;135353;1280;22520;-71
2023/05/10 03:06:56;;;;;;;;;;;;;;;9.19;47.54;99224.91;135355;1280;22506;-69
2023/05/10 03:10:00;;;;;;;;;;;;;;;9.06;47.91;99225.20;135596;1280;24242;-64
2023/05/10 03:13:02;;;;;;;;;;;;;;;8.98;48.07;99224.54;135331;1280;25212;-64
2023/05/10 03:16:05;;;;;;;;;;;;;;;8.93;48.16;99226.20;135368;1280;25377;-67
2023/05/10 03:19:15;;;;;;;;;;;;;;;8.97;48.15;99225.45;135566;1280;22524;-64
2023/05/10 03:22:17;;;;;;;;;;;;;;;8.95;48.60;99224.69;135560;1260;22543;-65
2023/05/10 03:25:24;;;;;;;;;;;;;;;8.98;48.84;99224.90;135545;1280;22519;-64
2023/05/10 03:28:28;;;;;;;;;;;;;;;9.06;48.52;99225.73;135383;1278;22504;-64
2023/05/10 03:31:32;;;;;;;;;;;;;;;9.16;48.47;99222.95;135309;1281;22523;-65
2023/05/10 03:34:36;;;;;;;;;;;;;;;9.34;48.04;99220.55;135238;1281;22519;-65
2023/05/10 03:37:39;;;;;;;;;;;;;;;9.43;48.27;99215.22;135306;1281;22511;-64
2023/05/10 03:40:42;;;;;;;;;;;;;;;9.54;48.12;99216.04;135365;1281;22554;-65
2023/05/10 03:43:52;;;;;;;;;;;;;;;9.53;48.30;99220.30;135342;1281;22518;-65
2023/05/10 03:46:56;;;;;;;;;;;;;;;9.65;48.43;99220.76;135328;1281;22530;-65
2023/05/10 03:50:00;;;;;;;;;;;;;;;9.70;48.43;99218.20;135334;1280;22510;-68
2023/05/10 03:53:03;;;;;;;;;;;;;;;9.87;48.17;99220.84;135630;1280;22533;-66
2023/05/10 03:56:07;;;;;;;;;;;;;;;9.99;48.09;99212.68;135546;1273;22648;-66
2023/05/10 03:59:14;;;;;;;;;;;;;;;10.17;47.83;99215.09;135365;1272;22500;-63
2023/05/10 04:02:17;;;;;;;;;;;;;;;10.34;47.99;99212.30;135288;1281;22520;-64
2023/05/10 04:05:19;;;;;;;;;;;;;;;10.47;47.69;99214.23;135371;1278;22617;-65
2023/05/10 04:08:22;;;;;;;;;;;;;;;10.62;47.23;99216.77;135576;1280;22494;-66
2023/05/10 04:11:25;;;;;;;;;;;;;;;10.73;47.27;99214.92;135581;1263;22504;-66
2023/05/10 04:14:28;;;;;;;;;;;;;;;10.87;47.04;99216.03;135649;1280;24191;-65
2023/05/10 04:17:31;;;;;;;;;;;;;;;10.99;47.33;99212.38;135635;1262;24209;-65
2023/05/10 04:20:38;;;;;;;;;;;;;;;11.20;46.66;99214.71;135633;1280;22512;-65
2023/05/10 04:23:41;;;;;;;;;;;;;;;11.34;46.44;99212.52;135557;1280;22500;-66
2023/05/10 04:26:45;;;;;;;;;;;;;;;11.53;46.15;99206.88;135630;1280;22528;-69
2023/05/10 04:29:48;;;;;;;;;;;;;;;11.83;45.79;99208.62;135447;1280;22500;-67
2023/05/10 04:32:51;;;;;;;;;;;;;;;11.98;45.69;99208.09;136190;1280;22494;-66
2023/05/10 04:35:57;;;;;;;;;;;;;;;12.17;45.33;99208.86;135712;1272;24269;-66
2023/05/10 04:39:02;;;;;;;;;;;;;;;12.32;45.22;99208.80;135146;1279;22524;-66
2023/05/10 04:42:06;;;;;;;;;;;;;;;12.48;45.14;99209.55;135114;1263;22554;-67
2023/05/10 04:45:09;;;;;;;;;;;;;;;12.65;44.90;99204.46;135498;1279;22649;-67
2023/05/10 04:48:12;;;;;;;;;;;;;;;12.88;44.54;99203.48;135604;1270;22640;-67
2023/05/10 04:51:15;;;;;;;;;;;;;;;13.05;44.35;99205.23;135530;1279;22500;-67
2023/05/10 04:54:26;;;;;;;;;;;;;;;13.13;44.20;99201.89;135638;1280;22498;-69
2023/05/10 04:57:29;;;;;;;;;;;;;;;13.28;43.91;99200.40;135606;1279;22504;-67
2023/05/10 05:00:33;;;;;;;;;;;;;;;13.48;43.54;99198.95;135497;1279;22635;-65
2023/05/10 05:03:36;;;;;;;;;;;;;;;13.58;43.43;99202.35;135593;1279;22515;-68
2023/05/10 05:06:40;;;;;;;;;;;;;;;13.71;43.39;99202.66;135438;1279;22507;-68
2023/05/10 05:09:46;;;;;;;;;;;;;;;13.94;43.04;99198.11;135543;1279;25245;-67
2023/05/10 05:12:49;;;;;;;;;;;;;;;14.14;42.74;99197.27;135585;1279;22516;-66
2023/05/10 05:15:53;;;;;;;;;;;;;;;14.36;42.65;99198.58;135390;1279;22529;-65
2023/05/10 05:18:56;;;;;;;;;;;;;;;14.53;42.14;99201.02;135577;1279;24205;-66
2023/05/10 05:22:00;;;;;;;;;;;;;;;14.64;42.01;99199.39;135649;1279;22513;-67
2023/05/10 05:25:04;;;;;;;;;;;;;;;14.79;41.72;99201.48;135576;1279;22516;-65
2023/05/10 05:28:07;;;;;;;;;;;;;;;14.98;41.69;99203.48;135595;1279;22506;-67
2023/05/10 05:31:11;;;;;;;;;;;;;;;15.15;41.51;99200.98;135629;1279;22488;-65
2023/05/10 05:34:14;;;;;;;;;;;;;;;15.44;41.29;99201.18;135560;1279;22522;-66
2023/05/10 05:37:18;;;;;;;;;;;;;;;15.64;40.93;99192.95;135559;1279;22509;-64
2023/05/10 05:40:21;;;;;;;;;;;;;;;15.73;40.30;99190.29;135566;1279;22522;-66
2023/05/10 05:43:25;;;;;;;;;;;;;;;15.83;40.50;99198.95;135584;1279;22656;-67
2023/05/10 05:46:28;;;;;;;;;;;;;;;15.97;40.10;99204.43;135631;1279;22526;-65
2023/05/10 05:49:31;;;;;;;;;;;;;;;16.08;40.25;99200.01;135617;1279;23327;-66
2023/05/10 05:52:35;;;;;;;;;;;;;;;16.21;39.86;99200.28;135627;1280;25359;-65
2023/05/10 05:55:39;;;;;;;;;;;;;;;16.28;39.76;99201.61;135606;1280;22613;-65
2023/05/10 05:58:41;;;;;;;;;;;;;;;16.42;39.41;99197.71;135526;1280;22511;-66
2023/05/10 06:01:45;;;;;;;;;;;;;;;16.60;39.43;99199.81;135629;1280;22500;-67
2023/05/10 06:04:48;;;;;;;;;;;;;;;16.85;39.62;99198.88;135646;1280;22506;-66
2023/05/10 06:07:52;;;;;;;;;;;;;;;17.13;39.37;99197.65;135673;1280;22544;-65
2023/05/10 06:10:58;;;;;;;;;;;;;;;17.34;38.71;99196.15;135589;1280;24357;-70
2023/05/10 06:14:01;;;;;;;;;;;;;;;17.41;38.40;99201.73;135618;1280;22513;-67
2023/05/10 06:17:06;;;;;;;;;;;;;;;17.53;38.34;99200.41;135568;1280;22529;-68
2023/05/10 06:20:10;;;;;;;;;;;;;;;17.79;38.63;99201.05;135572;1280;22511;-66
2023/05/10 06:23:13;;;;;;;;;;;;;;;17.97;37.89;99200.76;135631;1280;22495;-66
2023/05/10 06:26:17;;;;;;;;;;;;;;;18.19;38.35;99197.48;135604;1280;22500;-67
2023/05/10 06:29:21;;;;;;;;;;;;;;;18.50;38.21;99195.55;135638;1280;22501;-69
2023/05/10 06:32:24;;;;;;;;;;;;;;;18.56;36.83;99192.86;135614;1280;22505;-66
2023/05/10 06:35:27;;;;;;;;;;;;;;;18.64;37.60;99190.36;135620;1280;22518;-66
2023/05/10 06:38:30;;;;;;;;;;;;;;;18.93;37.92;99191.69;135590;1280;22507;-66
2023/05/10 06:41:32;;;;;;;;;;;;;;;19.05;36.57;99190.09;135668;1280;23309;-65
2023/05/10 06:44:35;;;;;;;;;;;;;;;19.10;36.63;99196.24;135599;1279;23052;-66
2023/05/10 06:47:39;;;;;;;;;;;;;;;19.12;35.66;99194.98;135617;1271;22648;-66
2023/05/10 06:50:42;;;;;;;;;;;;;;;19.05;35.58;99195.11;135576;1270;22512;-66
2023/05/10 06:53:44;;;;;;;;;;;;;;;19.24;36.05;99196.75;135611;1263;22522;-66
2023/05/10 06:56:47;;;;;;;;;;;;;;;19.53;35.91;99189.31;135602;1262;23005;-69
2023/05/10 06:59:51;;;;;;;;;;;;;;;19.78;35.69;99195.34;135627;1280;22516;-68
2023/05/10 07:02:54;;;;;;;;;;;;;;;20.09;35.20;99193.33;135609;1279;22523;-68
2023/05/10 07:05:58;;;;;;;;;;;;;;;20.06;35.47;99192.92;135506;1279;22545;-68
2023/05/10 07:09:01;;;;;;;;;;;;;;;20.30;35.85;99194.56;135611;1280;22511;-67
2023/05/10 07:12:04;;;;;;;;;;;;;;;20.51;34.70;99194.55;135615;1279;22553;-65
2023/05/10 07:15:07;;;;;;;;;;;;;;;20.45;34.36;99192.95;135623;1271;22500;-67
2023/05/10 07:18:10;;;;;;;;;;;;;;;20.40;34.66;99189.46;135636;1279;22511;-67
2023/05/10 07:21:14;;;;;;;;;;;;;;;20.41;34.30;99182.32;135593;1279;25207;-67
2023/05/10 07:24:16;;;;;;;;;;;;;;;20.48;34.79;99187.73;135627;1279;22519;-66
2023/05/10 07:27:20;;;;;;;;;;;;;;;20.77;35.11;99186.01;135599;1280;22513;-70
2023/05/10 07:30:23;;;;;;;;;;;;;;;20.86;34.31;99185.48;135629;1280;22509;-66
2023/05/10 07:33:26;;;;;;;;;;;;;;;21.08;34.98;99186.46;135623;1280;22520;-67
2023/05/10 07:36:29;;;;;;;;;;;;;;;21.44;34.99;99190.91;135314;1280;22514;-67
2023/05/10 07:39:32;;;;;;;;;;;;;;;21.69;34.05;99187.94;135652;1280;22581;-67
2023/05/10 07:42:36;;;;;;;;;;;;;;;21.80;34.03;99181.78;135615;1280;22527;-67
2023/05/10 07:45:39;;;;;;;;;;;;;;;21.96;34.02;99181.45;135604;1280;22517;-66
2023/05/10 07:48:42;;;;;;;;;;;;;;;21.98;32.92;99179.39;135548;1280;22525;-68
2023/05/10 07:51:45;;;;;;;;;;;;;;;21.95;33.30;99180.27;135675;1280;22560;-68
2023/05/10 07:54:48;;;;;;;;;;;;;;;22.06;32.88;99177.89;135613;1280;22505;-68
2023/05/10 07:57:51;;;;;;;;;;;;;;;21.83;32.65;99169.26;135630;1280;22530;-67
2023/05/10 08:00:54;;;;;;;;;;;;;;;21.74;33.41;99174.44;135535;1280;22702;-67
2023/05/10 08:03:57;;;;;;;;;;;;;;;22.06;33.75;99168.42;135643;1280;22491;-67
2023/05/10 08:07:01;;;;;;;;;;;;;;;22.18;32.79;99172.55;135596;1280;25343;-66
2023/05/10 08:10:03;;;;;;;;;;;;;;;22.20;33.33;99177.36;135576;1279;24558;-66
2023/05/10 08:13:07;;;;;;;;;;;;;;;22.24;32.72;99171.80;135651;1281;22536;-67
2023/05/10 08:16:10;;;;;;;;;;;;;;;22.38;33.32;99177.29;135629;1280;22494;-67
2023/05/10 08:19:14;;;;;;;;;;;;;;;22.75;33.17;99173.57;135628;1280;25334;-67
2023/05/10 08:22:16;;;;;;;;;;;;;;;22.94;33.04;99173.67;135617;1280;22519;-67
2023/05/10 08:25:19;;;;;;;;;;;;;;;23.16;32.96;99172.13;135599;1280;22535;-67
2023/05/10 08:28:22;;;;;;;;;;;;;;;23.40;32.52;99168.94;135634;1280;22568;-67
2023/05/10 08:31:26;;;;;;;;;;;;;;;23.34;31.52;99172.40;135480;1280;22536;-67
2023/05/10 08:34:30;;;;;;;;;;;;;;;23.43;32.20;99169.11;135622;1280;22539;-67
2023/05/10 08:37:34;;;;;;;;;;;;;;;23.50;31.72;99169.25;135634;1280;24390;-67
2023/05/10 08:40:37;;;;;;;;;;;;;;;23.58;31.84;99167.90;135376;1280;22514;-69
2023/05/10 08:43:45;;;;;;;;;;;;;;;23.71;31.17;99175.78;135589;1280;22531;-69
2023/05/10 08:46:49;;;;;;;;;;;;;;;23.68;31.12;99171.06;135630;1280;22529;-67
2023/05/10 08:49:52;;;;;;;;;;;;;;;23.69;31.37;99165.80;135664;1280;22514;-70
2023/05/10 08:52:55;;;;;;;;;;;;;;;23.70;31.38;99165.88;135604;1280;22508;-68
2023/05/10 08:55:58;;;;;;;;;;;;;;;23.67;30.74;99164.04;135604;1271;22522;-69
2023/05/10 08:59:01;;;;;;;;;;;;;;;23.51;30.23;99169.21;135366;1268;22509;-71
2023/05/10 09:02:04;;;;;;;;;;;;;;;23.43;31.00;99163.86;135601;1264;22511;-68
2023/05/10 09:05:07;;;;;;;;;;;;;;;23.51;30.54;99170.09;135590;1264;24218;-67
2023/05/10 09:08:10;;;;;;;;;;;;;;;23.58;30.98;99162.27;135580;1280;22506;-71
2023/05/10 09:11:13;;;;;;;;;;;;;;;23.71;30.36;99157.66;135563;1280;22511;-69
2023/05/10 09:14:16;;;;;;;;;;;;;;;23.71;30.53;99163.03;135605;1280;22827;-69
2023/05/10 09:17:18;;;;;;;;;;;;;;;23.94;30.60;99164.50;135602;1280;22530;-69
2023/05/10 09:20:22;;;;;;;;;;;;;;;24.07;29.67;99162.83;135608;1280;22530;-69
2023/05/10 09:23:31;;;;;;;;;;;;;;;24.04;29.74;99164.65;135596;1280;22532;-69
2023/05/10 09:26:35;;;;;;;;;;;;;;;24.03;29.51;99161.52;135600;1279;22527;-68
2023/05/10 09:29:38;;;;;;;;;;;;;;;24.11;29.32;99168.36;135639;1279;22522;-70
2023/05/10 09:32:41;;;;;;;;;;;;;;;24.11;28.89;99167.98;135599;1279;22514;-71
2023/05/10 09:35:47;;;;;;;;;;;;;;;24.12;29.12;99156.80;135566;1264;22580;-68
2023/05/10 09:38:51;;;;;;;;;;;;;;;23.70;28.78;99169.39;135578;1270;22514;-71
2023/05/10 09:41:54;;;;;;;;;;;;;;;23.68;29.52;99165.36;135613;1280;23895;-68
2023/05/10 09:44:57;;;;;;;;;;;;;;;23.84;28.83;99161.41;135540;1280;22524;-69
2023/05/10 09:48:01;;;;;;;;;;;;;;;24.07;29.06;99159.66;135539;1277;22504;-71
2023/05/10 09:51:04;;;;;;;;;;;;;;;24.21;28.45;99155.77;135623;1280;22534;-68
2023/05/10 09:54:07;;;;;;;;;;;;;;;24.45;28.25;99155.55;135604;1280;22536;-69
2023/05/10 09:57:10;;;;;;;;;;;;;;;24.68;28.53;99157.57;135572;1280;22504;-72
2023/05/10 10:00:14;;;;;;;;;;;;;;;24.64;28.17;99152.18;135561;1280;22669;-68
2023/05/10 10:03:17;;;;;;;;;;;;;;;24.44;27.63;99147.41;135508;1280;22512;-68
2023/05/10 10:06:19;;;;;;;;;;;;;;;24.63;28.48;99141.86;135574;1280;22507;-70
2023/05/10 10:09:22;;;;;;;;;;;;;;;24.91;27.55;99138.34;135558;1280;22505;-71
2023/05/10 10:12:32;;;;;;;;;;;;;;;24.91;27.07;99141.39;135522;1280;22510;-66
2023/05/10 10:15:35;;;;;;;;;;;;;;;24.86;27.25;99143.77;135562;1280;22546;-68
2023/05/10 10:18:39;;;;;;;;;;;;;;;24.87;27.84;99138.20;135528;1280;22522;-70
2023/05/10 10:21:42;;;;;;;;;;;;;;;24.91;27.54;99141.02;135576;1280;22515;-69
2023/05/10 10:24:46;;;;;;;;;;;;;;;24.61;27.62;99138.58;135573;1280;22539;-67
2023/05/10 10:27:49;;;;;;;;;;;;;;;24.62;27.54;99137.53;135540;1267;22504;-68
2023/05/10 10:30:52;;;;;;;;;;;;;;;24.44;27.24;99136.91;135545;1280;25418;-67
2023/05/10 10:33:56;;;;;;;;;;;;;;;24.17;26.66;99133.44;135563;1280;24239;-69
2023/05/10 10:36:59;;;;;;;;;;;;;;;23.94;27.47;99120.52;135576;1280;22571;-70
2023/05/10 10:40:03;;;;;;;;;;;;;;;24.37;28.28;99131.99;135549;1280;22624;-68
2023/05/10 10:43:06;;;;;;;;;;;;;;;24.90;27.58;99125.23;135529;1280;22504;-68
2023/05/10 10:46:10;;;;;;;;;;;;;;;25.15;27.40;99129.75;135584;1280;22514;-70
2023/05/10 10:49:14;;;;;;;;;;;;;;;25.32;26.77;99127.27;135453;1280;22500;-68
2023/05/10 10:52:17;;;;;;;;;;;;;;;25.57;27.34;99121.52;135581;1280;22502;-69
2023/05/10 10:55:23;;;;;;;;;;;;;;;25.91;26.54;99122.98;135537;1280;22517;-69
2023/05/10 10:58:26;;;;;;;;;;;;;;;25.81;25.63;99118.09;135599;1280;22510;-67
2023/05/10 11:01:31;;;;;;;;;;;;;;;25.85;26.63;99124.55;135596;1280;22641;-68
2023/05/10 11:04:34;;;;;;;;;;;;;;;26.06;26.34;99117.29;135514;1280;22521;-67
2023/05/10 11:07:37;;;;;;;;;;;;;;;26.09;25.80;99116.67;135566;1280;22520;-67
2023/05/10 11:10:40;;;;;;;;;;;;;;;26.15;26.17;99113.89;135605;1262;22518;-70
2023/05/10 11:13:43;;;;;;;;;;;;;;;26.18;26.28;99111.45;135583;1280;22609;-70
2023/05/10 11:16:47;;;;;;;;;;;;;;;26.41;26.02;99107.06;135518;1280;22533;-68
2023/05/10 11:19:51;;;;;;;;;;;;;;;26.51;25.90;99098.48;135560;1280;22509;-70
2023/05/10 11:22:54;;;;;;;;;;;;;;;26.59;25.60;99100.17;135558;1280;22511;-71
2023/05/10 11:25:57;;;;;;;;;;;;;;;26.65;25.54;99097.58;135557;1270;23005;-67
2023/05/10 11:29:01;;;;;;;;;;;;;;;26.52;25.76;99102.55;135571;1262;25438;-69
2023/05/10 11:32:07;;;;;;;;;;;;;;;26.44;25.14;99102.38;135560;1258;22514;-70
2023/05/10 11:35:10;;;;;;;;;;;;;;;26.46;25.17;99098.82;135254;1278;22534;-71
2023/05/10 11:38:13;;;;;;;;;;;;;;;26.63;25.29;99099.54;135556;1262;22619;-66
2023/05/10 11:41:16;;;;;;;;;;;;;;;26.69;25.25;99095.83;135569;1280;22519;-67
2023/05/10 11:44:19;;;;;;;;;;;;;;;26.63;25.92;99090.70;135551;1280;22503;-69
2023/05/10 11:47:22;;;;;;;;;;;;;;;26.89;25.88;99090.61;135524;1280;22510;-71
2023/05/10 11:50:25;;;;;;;;;;;;;;;27.03;25.34;99090.19;135505;1280;24250;-69
2023/05/10 11:53:29;;;;;;;;;;;;;;;27.00;24.98;99091.81;135410;1280;22620;-67
2023/05/10 11:56:32;;;;;;;;;;;;;;;27.14;24.93;99096.98;135556;1280;22540;-68
2023/05/10 11:59:34;;;;;;;;;;;;;;;27.06;24.34;99092.81;135584;1280;22549;-67
2023/05/10 12:02:37;;;;;;;;;;;;;;;27.13;24.62;99094.09;135532;1280;22513;-69
2023/05/10 12:05:41;;;;;;;;;;;;;;;27.24;24.71;99093.38;131410;1280;5390658;-69
2023/05/10 12:08:44;;;;;;;;;;;;;;;27.24;24.73;99093.21;135495;1280;22514;-69
2023/05/10 12:11:47;;;;;;;;;;;;;;;27.25;24.37;99094.89;135539;1280;22548;-67
2023/05/10 12:14:50;;;;;;;;;;;;;;;27.38;24.65;99088.82;135533;1280;24356;-71
2023/05/10 12:17:53;;;;;;;;;;;;;;;27.56;24.76;99093.42;135553;1280;22582;-70
2023/05/10 12:20:56;;;;;;;;;;;;;;;27.75;24.66;99091.27;135512;1262;22545;-67
2023/05/10 12:24:02;;;;;;;;;;;;;;;28.07;24.78;99088.55;135343;1280;22551;-67
2023/05/10 12:27:07;;;;;;;;;;;;;;;28.48;24.70;99083.71;135526;1280;22572;-67
2023/05/10 12:30:11;;;;;;;;;;;;;;;28.42;24.11;99088.64;135527;1280;22546;-69
2023/05/10 12:33:16;;;;;;;;;;;;;;;28.29;23.97;99086.98;135465;1280;22625;-66
2023/05/10 12:36:19;;;;;;;;;;;;;;;28.12;23.84;99086.09;135480;1280;22558;-69
2023/05/10 12:39:22;;;;;;;;;;;;;;;28.01;24.03;99080.77;135360;1263;22532;-70
2023/05/10 12:42:25;;;;;;;;;;;;;;;27.79;24.05;99080.10;135559;1280;22536;-68
2023/05/10 12:45:29;;;;;;;;;;;;;;;27.85;24.64;99072.70;135488;1280;22518;-68
2023/05/10 12:48:33;;;;;;;;;;;;;;;28.07;24.51;99075.36;135515;1280;22528;-68
2023/05/10 12:51:37;;;;;;;;;;;;;;;28.37;24.60;99073.35;135569;1280;22517;-66
2023/05/10 12:54:40;;;;;;;;;;;;;;;28.73;23.71;99072.66;135551;1280;22510;-68
2023/05/10 12:57:43;;;;;;;;;;;;;;;28.61;23.81;99073.96;135579;1280;22596;-70
2023/05/10 13:00:47;;;;;;;;;;;;;;;28.13;23.55;99072.05;135498;1279;22528;-68
2023/05/10 13:03:50;;;;;;;;;;;;;;;27.36;24.06;99073.77;135481;1279;22510;-69
2023/05/10 13:06:58;;;;;;;;;;;;;;;27.52;24.78;99069.01;135548;1279;22514;-70
2023/05/10 13:10:01;;;;;;;;;;;;;;;27.32;24.39;99067.97;135500;1279;25208;-66
2023/05/10 13:13:05;;;;;;;;;;;;;;;26.97;24.71;99069.21;135517;1280;22529;-67
2023/05/10 13:16:08;;;;;;;;;;;;;;;26.37;24.49;99065.77;135536;1279;22490;-67
2023/05/10 13:19:12;;;;;;;;;;;;;;;26.63;24.59;99063.20;135433;1279;22508;-67
2023/05/10 13:22:15;;;;;;;;;;;;;;;27.06;24.85;99056.88;135468;1279;22512;-68
2023/05/10 13:25:19;;;;;;;;;;;;;;;27.59;24.56;99045.13;135531;1279;23105;-69
2023/05/10 13:28:23;;;;;;;;;;;;;;;27.66;24.75;99045.87;135511;1279;22532;-70
2023/05/10 13:31:26;;;;;;;;;;;;;;;28.00;24.04;99047.09;135521;1279;22518;-69
2023/05/10 13:34:30;;;;;;;;;;;;;;;27.91;24.14;99044.33;135534;1279;22517;-67
2023/05/10 13:37:36;;;;;;;;;;;;;;;27.67;24.08;99035.55;135512;1279;22518;-69
2023/05/10 13:40:40;;;;;;;;;;;;;;;27.20;24.19;99045.40;135500;1279;22516;-69
2023/05/10 13:43:44;;;;;;;;;;;;;;;26.79;24.64;99041.42;135497;1279;22540;-68
2023/05/10 13:46:47;;;;;;;;;;;;;;;26.79;24.61;99034.99;135482;1279;22515;-68
2023/05/10 13:49:51;;;;;;;;;;;;;;;26.99;24.34;99027.14;135461;1279;22518;-69
2023/05/10 13:52:54;;;;;;;;;;;;;;;26.28;24.68;99032.30;135532;1279;22536;-69
2023/05/10 13:56:02;;;;;;;;;;;;;;;26.17;24.81;99031.23;135524;1262;22588;-66
2023/05/10 13:59:04;;;;;;;;;;;;;;;26.39;25.22;99023.09;135511;1279;22532;-66
2023/05/10 14:02:07;;;;;;;;;;;;;;;26.38;24.86;99023.59;135495;1279;22513;-69
2023/05/10 14:05:11;;;;;;;;;;;;;;;26.54;25.17;99023.66;135521;1279;22508;-67
2023/05/10 14:08:14;;;;;;;;;;;;;;;26.88;24.92;99018.30;135486;1279;25376;-68
2023/05/10 14:11:18;;;;;;;;;;;;;;;27.14;24.90;99011.76;135431;1280;22503;-67
2023/05/10 14:14:21;;;;;;;;;;;;;;;27.17;24.59;99003.30;135493;1280;22514;-67
2023/05/10 14:17:24;;;;;;;;;;;;;;;27.23;24.23;99010.24;135535;1280;22511;-68
2023/05/10 14:20:28;;;;;;;;;;;;;;;27.20;24.51;99006.48;135541;1280;22508;-67
2023/05/10 14:23:32;;;;;;;;;;;;;;;27.27;24.58;99009.11;135522;1280;23610;-68
2023/05/10 14:26:35;;;;;;;;;;;;;;;27.07;23.51;99000.73;135505;1280;22532;-68
2023/05/10 14:29:38;;;;;;;;;;;;;;;26.74;24.45;99008.85;135483;1280;25233;-68
2023/05/10 14:32:40;;;;;;;;;;;;;;;26.63;24.32;99012.57;135483;1280;24208;-69
2023/05/10 14:35:43;;;;;;;;;;;;;;;26.63;24.80;99003.21;135493;1280;23868;-65
2023/05/10 14:38:47;;;;;;;;;;;;;;;26.66;24.53;99001.77;135511;1280;22551;-66
2023/05/10 14:41:52;;;;;;;;;;;;;;;26.86;24.56;99002.54;135458;1280;22539;-67
2023/05/10 14:44:57;;;;;;;;;;;;;;;26.85;23.90;98993.87;135504;1280;22542;-67
2023/05/10 14:48:04;;;;;;;;;;;;;;;26.76;23.65;98985.42;135535;1280;22501;-66
2023/05/10 14:51:06;;;;;;;;;;;;;;;26.77;24.28;98998.89;135493;1280;22744;-68
2023/05/10 14:54:10;;;;;;;;;;;;;;;27.04;24.30;99007.08;135512;1280;22547;-65
2023/05/10 14:57:13;;;;;;;;;;;;;;;27.18;23.99;99005.87;135540;1280;22509;-66
2023/05/10 15:00:16;;;;;;;;;;;;;;;27.34;24.17;98998.97;135557;1280;22537;-65
2023/05/10 15:03:23;;;;;;;;;;;;;;;27.48;24.04;99004.92;135522;1280;27104;-66
2023/05/10 15:06:26;;;;;;;;;;;;;;;27.94;23.66;99000.27;135514;1280;22526;-67
2023/05/10 15:09:31;;;;;;;;;;;;;;;28.66;23.21;98998.64;135571;1280;25406;-67
2023/05/10 15:12:34;;;;;;;;;;;;;;;29.90;21.79;98993.91;135557;1280;22578;-65
2023/05/10 15:15:38;;;;;;;;;;;;;;;31.09;21.39;98993.95;135535;1280;22549;-68
2023/05/10 15:18:41;;;;;;;;;;;;;;;32.07;20.76;98995.06;135505;1280;22524;-67
2023/05/10 15:21:45;;;;;;;;;;;;;;;33.47;19.97;98992.07;135517;1280;22503;-67
2023/05/10 15:24:48;;;;;;;;;;;;;;;34.40;19.07;98997.33;135484;1280;22560;-66
2023/05/10 15:27:51;;;;;;;;;;;;;;;35.20;18.92;98992.13;135582;1280;22514;-68
2023/05/10 15:30:54;;;;;;;;;;;;;;;35.67;18.22;98991.80;135523;1262;22624;-67
2023/05/10 15:33:58;;;;;;;;;;;;;;;36.01;17.57;98984.67;135486;1280;22659;-65
2023/05/10 15:37:01;;;;;;;;;;;;;;;36.22;17.89;98988.27;135511;1262;22511;-67
2023/05/10 15:40:03;;;;;;;;;;;;;;;36.85;17.62;98994.52;135259;1259;24226;-69
2023/05/10 15:43:07;;;;;;;;;;;;;;;37.31;16.94;98991.77;135352;1280;22531;-64
2023/05/10 15:46:09;;;;;;;;;;;;;;;37.89;16.72;98991.80;135565;1276;22771;-65